Time;durP1;ratioP1;P1;durP2;ratioP2;P2;SDS_P1;SDS_P2;PMS_P1;PMS_P2;Temp;Humidity;BMP_temperature;BMP_pressure;BME280_temperature;BME280_humidity;BME280_pressure;Samples;Min_cycle;Max_cycle;Signal;HPM_P1;HPM_P2
2023/03/17 00:01:41;;;;;;;;;;;;;;;8.10;66.30;100879.28;5044250;28;20311;-58
2023/03/17 00:04:09;;;;;;;;;;;;;;;8.10;66.43;100884.41;5045317;28;19921;-58
2023/03/17 00:06:35;;;;;;;;;;;;;;;8.09;66.64;100886.94;5045187;28;20446;-59
2023/03/17 00:09:01;;;;;;;;;;;;;;;8.08;66.58;100880.94;5043412;28;20309;-61
2023/03/17 00:11:26;;;;;;;;;;;;;;;8.06;66.66;100872.31;5044756;28;19925;-58
2023/03/17 00:13:52;;;;;;;;;;;;;;;8.02;66.62;100861.09;5045589;28;19917;-58
2023/03/17 00:16:25;;;;;;;;;;;;;;;7.98;66.76;100859.22;5038221;28;19936;-59
2023/03/17 00:18:52;;;;;;;;;;;;;;;7.96;66.74;100867.66;5041085;28;19921;-59
2023/03/17 00:21:27;;;;;;;;;;;;;;;7.95;67.13;100863.38;5043191;28;19920;-59
2023/03/17 00:23:53;;;;;;;;;;;;;;;7.92;66.92;100853.00;5043371;28;20284;-59
2023/03/17 00:26:19;;;;;;;;;;;;;;;7.89;67.26;100848.63;5044613;28;20003;-59
2023/03/17 00:28:44;;;;;;;;;;;;;;;7.86;67.34;100843.38;5041593;28;20011;-59
2023/03/17 00:31:20;;;;;;;;;;;;;;;7.84;67.88;100837.34;5045059;28;19920;-60
2023/03/17 00:33:46;;;;;;;;;;;;;;;7.80;67.47;100827.78;5040823;28;19921;-59
2023/03/17 00:36:17;;;;;;;;;;;;;;;7.78;67.78;100822.63;5043957;28;19924;-58
2023/03/17 00:38:43;;;;;;;;;;;;;;;7.75;67.75;100829.28;5042380;28;19927;-59
2023/03/17 00:41:09;;;;;;;;;;;;;;;7.72;67.69;100839.44;5046956;28;19978;-59
2023/03/17 00:43:35;;;;;;;;;;;;;;;7.69;67.96;100836.72;5042287;28;20373;-58
2023/03/17 00:46:01;;;;;;;;;;;;;;;7.65;67.79;100825.53;5044744;28;19928;-58
2023/03/17 00:48:28;;;;;;;;;;;;;;;7.65;67.85;100838.31;5046342;28;19924;-59
2023/03/17 00:50:54;;;;;;;;;;;;;;;7.65;68.06;100833.19;5038857;28;19927;-57
2023/03/17 00:53:20;;;;;;;;;;;;;;;7.66;67.99;100831.50;5025867;28;19931;-58
2023/03/17 00:55:46;;;;;;;;;;;;;;;7.64;67.85;100828.88;5043692;28;20924;-58
2023/03/17 00:58:12;;;;;;;;;;;;;;;7.64;67.80;100833.13;5046298;28;20331;-58
2023/03/17 01:00:38;;;;;;;;;;;;;;;7.65;67.96;100824.66;5051295;28;19923;-58
2023/03/17 01:03:04;;;;;;;;;;;;;;;7.65;67.82;100819.53;5050737;28;19982;-58
2023/03/17 01:05:29;;;;;;;;;;;;;;;7.62;67.88;100821.94;5048227;28;19916;-57
2023/03/17 01:07:56;;;;;;;;;;;;;;;7.62;68.00;100821.94;5048255;28;20397;-58
2023/03/17 01:10:25;;;;;;;;;;;;;;;7.63;67.89;100826.25;5047083;28;19959;-58
2023/03/17 01:12:56;;;;;;;;;;;;;;;7.61;67.81;100825.34;5048150;28;20010;-57
2023/03/17 01:15:23;;;;;;;;;;;;;;;7.60;67.69;100823.59;5049540;28;20350;-58
2023/03/17 01:17:49;;;;;;;;;;;;;;;7.58;67.97;100823.50;5046635;28;20476;-58
2023/03/17 01:20:20;;;;;;;;;;;;;;;7.59;67.68;100819.28;5046800;28;19917;-58
2023/03/17 01:22:45;;;;;;;;;;;;;;;7.58;67.28;100814.97;5050386;28;19979;-57
2023/03/17 01:25:11;;;;;;;;;;;;;;;7.58;67.37;100820.06;5034591;28;20447;-58
2023/03/17 01:27:36;;;;;;;;;;;;;;;7.56;67.37;100808.91;5046844;28;19956;-58
2023/03/17 01:30:03;;;;;;;;;;;;;;;7.53;67.64;100802.88;5045752;28;19979;-58
2023/03/17 01:32:28;;;;;;;;;;;;;;;7.50;67.55;100810.41;5044355;28;20012;-58
2023/03/17 01:34:53;;;;;;;;;;;;;;;7.47;67.44;100812.00;5047732;28;20094;-58
2023/03/17 01:37:20;;;;;;;;;;;;;;;7.45;67.63;100804.25;5045975;28;19921;-58
2023/03/17 01:39:45;;;;;;;;;;;;;;;7.45;68.04;100805.94;5046272;28;19917;-58
2023/03/17 01:42:10;;;;;;;;;;;;;;;7.43;67.84;100803.31;5048652;28;20452;-57
2023/03/17 01:44:55;;;;;;;;;;;;;;;7.45;67.58;100801.69;5050305;28;19929;-58
2023/03/17 01:47:22;;;;;;;;;;;;;;;7.44;68.00;100805.06;5048024;28;19925;-58
2023/03/17 01:49:48;;;;;;;;;;;;;;;7.44;68.01;100802.50;5049211;28;20488;-58
2023/03/17 01:52:15;;;;;;;;;;;;;;;7.41;67.96;100804.97;5045735;28;20015;-58
2023/03/17 01:54:42;;;;;;;;;;;;;;;7.40;67.93;100810.00;5047016;28;20326;-58
2023/03/17 01:57:08;;;;;;;;;;;;;;;7.37;67.96;100791.97;5050054;28;19968;-58
2023/03/17 01:59:35;;;;;;;;;;;;;;;7.33;68.17;100800.31;5042672;28;20026;-58
2023/03/17 02:02:03;;;;;;;;;;;;;;;7.30;68.20;100788.31;5047112;28;19916;-58
2023/03/17 02:04:29;;;;;;;;;;;;;;;7.28;68.55;100786.47;5046298;28;20350;-59
2023/03/17 02:06:55;;;;;;;;;;;;;;;7.25;68.47;100772.75;5044583;28;20014;-58
2023/03/17 02:09:20;;;;;;;;;;;;;;;7.24;68.28;100775.28;5047103;28;20914;-58
2023/03/17 02:11:46;;;;;;;;;;;;;;;7.22;68.54;100771.78;5048962;28;19929;-58
2023/03/17 02:14:12;;;;;;;;;;;;;;;7.20;68.47;100760.59;5046481;28;19917;-58
2023/03/17 02:16:37;;;;;;;;;;;;;;;7.19;68.55;100756.31;5044643;28;19935;-58
2023/03/17 02:19:03;;;;;;;;;;;;;;;7.19;68.36;100769.97;5044664;28;20043;-58
2023/03/17 02:21:34;;;;;;;;;;;;;;;7.18;68.47;100765.66;5044944;28;20011;-58
2023/03/17 02:24:01;;;;;;;;;;;;;;;7.17;68.59;100763.06;5044920;28;19917;-58
2023/03/17 02:26:28;;;;;;;;;;;;;;;7.19;68.34;100775.06;5046119;28;19921;-57
2023/03/17 02:28:53;;;;;;;;;;;;;;;7.19;68.63;100774.22;5042286;28;19929;-58
2023/03/17 02:31:19;;;;;;;;;;;;;;;7.19;68.73;100769.09;5047500;28;19921;-58
2023/03/17 02:33:45;;;;;;;;;;;;;;;7.18;68.35;100759.69;5036914;28;20018;-58
2023/03/17 02:36:10;;;;;;;;;;;;;;;7.18;68.63;100758.00;5047284;28;20405;-58
2023/03/17 02:38:36;;;;;;;;;;;;;;;7.18;68.76;100757.13;5043823;28;19951;-58
2023/03/17 02:41:01;;;;;;;;;;;;;;;7.17;68.54;100753.69;5044548;28;19921;-58
2023/03/17 02:43:26;;;;;;;;;;;;;;;7.18;68.63;100742.66;5044908;28;19921;-58
2023/03/17 02:45:51;;;;;;;;;;;;;;;7.16;68.45;100741.72;5046917;28;19998;-58
2023/03/17 02:48:17;;;;;;;;;;;;;;;7.16;68.66;100748.50;5047810;28;20102;-58
2023/03/17 02:50:43;;;;;;;;;;;;;;;7.16;68.76;100740.81;5045321;28;20333;-58
2023/03/17 02:53:08;;;;;;;;;;;;;;;7.16;68.57;100745.94;5048309;28;19927;-58
2023/03/17 02:55:33;;;;;;;;;;;;;;;7.16;68.57;100740.81;5044078;28;19921;-60
2023/03/17 02:58:00;;;;;;;;;;;;;;;7.13;68.77;100733.06;5045444;28;19933;-58
2023/03/17 03:00:27;;;;;;;;;;;;;;;7.13;68.83;100738.16;5047915;28;19926;-58
2023/03/17 03:02:52;;;;;;;;;;;;;;;7.12;68.97;100736.44;5027391;28;19968;-57
2023/03/17 03:05:18;;;;;;;;;;;;;;;7.11;68.77;100734.69;5044102;28;20404;-58
2023/03/17 03:07:44;;;;;;;;;;;;;;;7.11;69.18;100750.03;5035275;28;20377;-58
2023/03/17 03:10:09;;;;;;;;;;;;;;;7.09;69.10;100756.75;5044043;28;19960;-60
2023/03/17 03:12:35;;;;;;;;;;;;;;;7.08;68.90;100750.75;5046528;28;19929;-58
2023/03/17 03:15:00;;;;;;;;;;;;;;;7.08;68.87;100745.66;5042935;28;20008;-58
2023/03/17 03:17:26;;;;;;;;;;;;;;;7.09;69.13;100743.97;5046353;28;20019;-62
2023/03/17 03:19:51;;;;;;;;;;;;;;;7.10;69.13;100745.69;5025794;28;19999;-58
2023/03/17 03:22:16;;;;;;;;;;;;;;;7.08;68.96;100744.78;5045451;28;19935;-58
2023/03/17 03:24:42;;;;;;;;;;;;;;;7.08;69.14;100750.75;5045747;28;20038;-58
2023/03/17 03:27:08;;;;;;;;;;;;;;;7.08;68.93;100749.88;5042536;28;19928;-58
2023/03/17 03:29:33;;;;;;;;;;;;;;;7.08;68.85;100758.44;5043702;28;21485;-58
2023/03/17 03:31:58;;;;;;;;;;;;;;;7.09;68.97;100762.72;5045144;28;20449;-58
2023/03/17 03:34:23;;;;;;;;;;;;;;;7.08;68.78;100760.13;5044798;28;19920;-58
2023/03/17 03:36:49;;;;;;;;;;;;;;;7.06;68.99;100756.63;5045110;28;19943;-58
2023/03/17 03:39:14;;;;;;;;;;;;;;;7.06;68.87;100752.38;5048778;28;19978;-58
2023/03/17 03:41:40;;;;;;;;;;;;;;;7.06;69.11;100751.53;5033540;28;19927;-58
2023/03/17 03:44:05;;;;;;;;;;;;;;;7.05;69.42;100753.22;5045233;28;20038;-58
2023/03/17 03:46:30;;;;;;;;;;;;;;;7.04;69.20;100763.34;5043155;28;19990;-57
2023/03/17 03:48:56;;;;;;;;;;;;;;;7.04;69.24;100769.38;5046685;28;19928;-58
2023/03/17 03:51:21;;;;;;;;;;;;;;;7.04;69.47;100764.25;5045328;28;19932;-58
2023/03/17 03:53:47;;;;;;;;;;;;;;;7.02;69.33;100768.41;5045155;28;20012;-58
2023/03/17 03:56:12;;;;;;;;;;;;;;;7.03;69.37;100776.94;5043197;28;20031;-58
2023/03/17 03:58:37;;;;;;;;;;;;;;;7.00;69.45;100767.47;5046544;28;20262;-58
2023/03/17 04:01:03;;;;;;;;;;;;;;;6.98;69.21;100772.53;5045561;28;20024;-57
2023/03/17 04:03:29;;;;;;;;;;;;;;;7.01;69.28;100787.13;5028476;28;19917;-57
2023/03/17 04:05:54;;;;;;;;;;;;;;;6.97;69.32;100778.44;5045978;28;19921;-57
2023/03/17 04:08:19;;;;;;;;;;;;;;;6.97;69.34;100778.44;5045532;28;20254;-58
2023/03/17 04:10:45;;;;;;;;;;;;;;;6.97;69.34;100775.00;5047890;28;20381;-58
2023/03/17 04:13:10;;;;;;;;;;;;;;;6.97;69.32;100783.56;5055332;28;19926;-57
2023/03/17 04:15:36;;;;;;;;;;;;;;;6.95;69.09;100772.41;5032424;28;20006;-57
2023/03/17 04:18:01;;;;;;;;;;;;;;;6.97;69.22;100777.56;5047246;28;20293;-61
2023/03/17 04:20:26;;;;;;;;;;;;;;;6.96;69.08;100774.13;5049206;28;19933;-58
2023/03/17 04:22:52;;;;;;;;;;;;;;;6.96;69.15;100771.59;5048804;28;20541;-58
2023/03/17 04:25:17;;;;;;;;;;;;;;;6.96;69.26;100778.38;5048606;28;20371;-57
2023/03/17 04:27:42;;;;;;;;;;;;;;;6.96;69.28;100774.13;5040463;28;20352;-57
2023/03/17 04:30:12;;;;;;;;;;;;;;;6.95;69.08;100772.41;5048226;28;19916;-58
2023/03/17 04:32:37;;;;;;;;;;;;;;;6.94;69.23;100772.34;5041522;28;20347;-58
2023/03/17 04:35:03;;;;;;;;;;;;;;;6.94;69.26;100777.47;5046412;28;20011;-60
2023/03/17 04:37:28;;;;;;;;;;;;;;;6.95;69.30;100779.19;5025157;28;19962;-58
2023/03/17 04:39:54;;;;;;;;;;;;;;;6.95;69.12;100774.09;5042455;28;19925;-59
2023/03/17 04:42:19;;;;;;;;;;;;;;;6.94;69.22;100774.91;5045452;28;20397;-58
2023/03/17 04:44:45;;;;;;;;;;;;;;;6.95;69.50;100785.19;5043998;28;19932;-58
2023/03/17 04:47:10;;;;;;;;;;;;;;;6.94;69.39;100780.88;5047004;28;20305;-58
2023/03/17 04:49:35;;;;;;;;;;;;;;;6.96;69.24;100784.38;5020965;28;19927;-58
2023/03/17 04:52:01;;;;;;;;;;;;;;;6.94;69.35;100782.56;5049410;28;19929;-58
2023/03/17 04:54:26;;;;;;;;;;;;;;;6.95;69.02;100776.63;5048536;28;19933;-58
2023/03/17 04:56:51;;;;;;;;;;;;;;;6.95;69.28;100774.09;5045497;28;19921;-58
2023/03/17 04:59:17;;;;;;;;;;;;;;;6.95;69.11;100767.28;5046794;28;19932;-58
2023/03/17 05:01:42;;;;;;;;;;;;;;;6.94;69.38;100773.22;5031474;28;19916;-58
2023/03/17 05:04:08;;;;;;;;;;;;;;;6.95;69.12;100767.28;5048830;28;19927;-58
2023/03/17 05:06:33;;;;;;;;;;;;;;;6.95;69.55;100762.19;5043599;28;20661;-58
2023/03/17 05:08:58;;;;;;;;;;;;;;;6.95;69.38;100764.72;5044918;28;20054;-58
2023/03/17 05:11:23;;;;;;;;;;;;;;;6.94;69.36;100750.22;5046321;28;19952;-58
2023/03/17 05:13:50;;;;;;;;;;;;;;;6.95;69.32;100754.50;5045600;28;19935;-58
2023/03/17 05:16:15;;;;;;;;;;;;;;;6.96;69.35;100765.59;5045948;28;20469;-57
2023/03/17 05:18:42;;;;;;;;;;;;;;;6.96;69.62;100761.34;5027203;28;20031;-57
2023/03/17 05:21:07;;;;;;;;;;;;;;;6.98;69.94;100753.78;5047790;28;19970;-58
2023/03/17 05:23:33;;;;;;;;;;;;;;;6.95;69.65;100757.06;5033358;28;19939;-57
2023/03/17 05:25:59;;;;;;;;;;;;;;;6.94;69.65;100757.88;5045475;28;19991;-58
2023/03/17 05:28:25;;;;;;;;;;;;;;;6.95;69.84;100766.41;5042288;28;19924;-58
2023/03/17 05:30:50;;;;;;;;;;;;;;;6.95;69.72;100767.28;5046375;28;20380;-59
2023/03/17 05:33:16;;;;;;;;;;;;;;;6.97;70.04;100767.34;5044275;28;19928;-58
2023/03/17 05:35:41;;;;;;;;;;;;;;;6.95;69.92;100768.97;5044731;28;19956;-58
2023/03/17 05:38:07;;;;;;;;;;;;;;;6.95;70.09;100768.97;5044755;28;20408;-57
2023/03/17 05:40:33;;;;;;;;;;;;;;;6.93;70.09;100763.81;5010757;28;19946;-58
2023/03/17 05:42:58;;;;;;;;;;;;;;;6.94;70.29;100772.34;5044424;28;19925;-58
2023/03/17 05:45:23;;;;;;;;;;;;;;;6.94;70.19;100772.34;5044242;28;19920;-60
2023/03/17 05:47:48;;;;;;;;;;;;;;;6.94;70.20;100778.31;5042707;28;19946;-58
2023/03/17 05:50:14;;;;;;;;;;;;;;;6.93;70.43;100774.03;5049286;28;20209;-58
2023/03/17 05:52:39;;;;;;;;;;;;;;;6.92;70.39;100772.28;5045145;28;19925;-58
2023/03/17 05:55:05;;;;;;;;;;;;;;;6.93;70.44;100775.72;5050186;28;19929;-58
2023/03/17 05:57:30;;;;;;;;;;;;;;;6.92;70.56;100761.19;5039456;28;19917;-58
2023/03/17 05:59:56;;;;;;;;;;;;;;;6.92;70.81;100764.63;5046170;28;20425;-58
2023/03/17 06:02:21;;;;;;;;;;;;;;;6.91;70.55;100757.72;5046388;28;19916;-59
2023/03/17 06:04:47;;;;;;;;;;;;;;;6.91;70.73;100756.88;5047633;28;19993;-58
2023/03/17 06:07:12;;;;;;;;;;;;;;;6.91;71.22;100767.09;5048579;28;19921;-58
2023/03/17 06:09:37;;;;;;;;;;;;;;;6.88;71.22;100761.88;5048187;28;19916;-58
2023/03/17 06:12:03;;;;;;;;;;;;;;;6.87;71.07;100755.88;5048406;28;19917;-59
2023/03/17 06:14:28;;;;;;;;;;;;;;;6.87;71.39;100765.25;5046337;28;19917;-58
2023/03/17 06:16:53;;;;;;;;;;;;;;;6.85;71.27;100761.72;5029292;28;19921;-58
2023/03/17 06:19:19;;;;;;;;;;;;;;;6.87;71.62;100763.56;5046501;28;20327;-58
2023/03/17 06:21:44;;;;;;;;;;;;;;;6.89;71.50;100758.50;5048811;28;20274;-58
2023/03/17 06:24:10;;;;;;;;;;;;;;;6.90;71.52;100763.66;5048636;28;19959;-59
2023/03/17 06:26:39;;;;;;;;;;;;;;;6.92;71.89;100762.06;5045127;28;19924;-58
2023/03/17 06:29:08;;;;;;;;;;;;;;;6.97;71.45;100762.22;5048174;28;19929;-58
2023/03/17 06:31:33;;;;;;;;;;;;;;;7.00;71.40;100762.38;5037204;28;19928;-62
2023/03/17 06:33:59;;;;;;;;;;;;;;;7.03;71.23;100766.72;5047461;28;19920;-58
2023/03/17 06:36:24;;;;;;;;;;;;;;;7.06;71.02;100772.84;5046607;28;19940;-58
2023/03/17 06:38:50;;;;;;;;;;;;;;;7.09;71.21;100772.09;5047162;28;19929;-59
2023/03/17 06:41:15;;;;;;;;;;;;;;;7.11;71.10;100770.47;5048774;28;20400;-60
2023/03/17 06:43:40;;;;;;;;;;;;;;;7.13;71.24;100773.97;5048686;28;19943;-58
2023/03/17 06:46:07;;;;;;;;;;;;;;;7.17;71.14;100775.84;5043530;28;19986;-57
2023/03/17 06:48:32;;;;;;;;;;;;;;;7.21;71.11;100778.56;5043496;28;20293;-57
2023/03/17 06:50:58;;;;;;;;;;;;;;;7.25;71.05;100767.66;5044028;28;19917;-58
2023/03/17 06:53:23;;;;;;;;;;;;;;;7.30;70.97;100772.97;5042663;28;19933;-57
2023/03/17 06:55:49;;;;;;;;;;;;;;;7.34;70.92;100772.28;5041348;28;19924;-58
2023/03/17 06:58:14;;;;;;;;;;;;;;;7.38;70.41;100771.56;5041478;28;20070;-58
2023/03/17 07:00:40;;;;;;;;;;;;;;;7.44;70.74;100774.38;5042612;28;20285;-58
2023/03/17 07:03:05;;;;;;;;;;;;;;;7.50;70.71;100766.91;5043357;28;19925;-58
2023/03/17 07:05:31;;;;;;;;;;;;;;;7.57;70.51;100767.16;5032712;28;20409;-60
2023/03/17 07:07:57;;;;;;;;;;;;;;;7.65;70.35;100770.91;5042603;28;19943;-58
2023/03/17 07:10:23;;;;;;;;;;;;;;;7.72;69.86;100772.88;5042402;28;19920;-59
2023/03/17 07:12:48;;;;;;;;;;;;;;;7.78;69.77;100779.09;5021469;28;19921;-58
2023/03/17 07:15:14;;;;;;;;;;;;;;;7.84;69.73;100777.59;5045900;28;19932;-57
2023/03/17 07:17:40;;;;;;;;;;;;;;;7.91;69.84;100774.44;5042777;28;20723;-57
2023/03/17 07:20:05;;;;;;;;;;;;;;;7.99;69.23;100767.91;5048487;28;19913;-57
2023/03/17 07:22:31;;;;;;;;;;;;;;;8.09;69.81;100776.81;5046776;28;19955;-58
2023/03/17 07:24:57;;;;;;;;;;;;;;;8.19;69.59;100774.66;5047512;28;19931;-59
2023/03/17 07:27:24;;;;;;;;;;;;;;;8.31;69.20;100769.06;5047721;28;19947;-57
2023/03/17 07:29:50;;;;;;;;;;;;;;;8.40;68.59;100779.69;5043018;28;19928;-57
2023/03/17 07:32:15;;;;;;;;;;;;;;;8.48;68.45;100770.56;5042354;28;20019;-57
2023/03/17 07:34:40;;;;;;;;;;;;;;;8.57;68.01;100765.78;5041071;28;19929;-57
2023/03/17 07:37:05;;;;;;;;;;;;;;;8.67;68.04;100754.13;5043319;28;19925;-57
2023/03/17 07:39:31;;;;;;;;;;;;;;;8.77;67.80;100752.75;5032873;28;20301;-58
2023/03/17 07:41:56;;;;;;;;;;;;;;;8.88;66.80;100753.13;5041451;28;19936;-58
2023/03/17 07:44:22;;;;;;;;;;;;;;;8.93;66.32;100743.88;5044252;28;19925;-60
2023/03/17 07:46:49;;;;;;;;;;;;;;;8.97;67.00;100736.31;5038299;28;19920;-58
2023/03/17 07:49:14;;;;;;;;;;;;;;;9.09;66.76;100740.97;5039680;28;19925;-58
2023/03/17 07:51:41;;;;;;;;;;;;;;;9.19;66.09;100752.41;5040216;28;20080;-59
2023/03/17 07:54:07;;;;;;;;;;;;;;;9.27;66.27;100761.22;5039702;28;20083;-58
2023/03/17 07:56:32;;;;;;;;;;;;;;;9.33;66.44;100767.41;5042463;28;20015;-58
2023/03/17 07:58:58;;;;;;;;;;;;;;;9.43;65.71;100757.44;5042209;28;19925;-58
2023/03/17 08:01:26;;;;;;;;;;;;;;;9.51;64.99;100766.25;5040794;28;20511;-59
2023/03/17 08:03:52;;;;;;;;;;;;;;;9.57;65.28;100771.56;5040590;28;19939;-58
2023/03/17 08:06:18;;;;;;;;;;;;;;;9.65;65.07;100775.25;5044386;28;19925;-58
2023/03/17 08:08:43;;;;;;;;;;;;;;;9.76;64.89;100771.28;5045192;28;19917;-58
2023/03/17 08:11:08;;;;;;;;;;;;;;;9.87;64.45;100776.75;5048880;28;19917;-58
2023/03/17 08:13:34;;;;;;;;;;;;;;;9.94;63.52;100774.41;5035698;28;20321;-58
2023/03/17 08:15:59;;;;;;;;;;;;;;;10.02;63.97;100764.38;5047507;28;19924;-59
2023/03/17 08:18:25;;;;;;;;;;;;;;;10.23;63.80;100752.94;5047448;28;20888;-58
2023/03/17 08:20:50;;;;;;;;;;;;;;;10.61;62.27;100761.69;5046472;28;19923;-58
2023/03/17 08:23:16;;;;;;;;;;;;;;;10.86;61.93;100765.78;5046130;28;19921;-58
2023/03/17 08:25:42;;;;;;;;;;;;;;;11.12;60.97;100769.88;5044522;28;19998;-58
2023/03/17 08:28:08;;;;;;;;;;;;;;;11.47;61.47;100760.41;5046677;28;19917;-58
2023/03/17 08:30:33;;;;;;;;;;;;;;;11.73;60.19;100748.09;5047438;28;20354;-58
2023/03/17 08:32:58;;;;;;;;;;;;;;;11.96;59.84;100758.06;5046936;28;20007;-58
2023/03/17 08:35:24;;;;;;;;;;;;;;;12.20;57.66;100758.56;5045818;28;20008;-58
2023/03/17 08:37:49;;;;;;;;;;;;;;;12.37;57.87;100753.69;5046235;28;19920;-58
2023/03/17 08:40:16;;;;;;;;;;;;;;;12.58;57.19;100751.53;5045141;28;19972;-59
2023/03/17 08:42:44;;;;;;;;;;;;;;;12.86;55.57;100742.56;5045865;28;20396;-57
2023/03/17 08:45:10;;;;;;;;;;;;;;;13.18;56.64;100749.97;5048307;28;19924;-57
2023/03/17 08:47:36;;;;;;;;;;;;;;;13.66;55.01;100736.94;5038414;28;20376;-57
2023/03/17 08:50:03;;;;;;;;;;;;;;;14.05;53.50;100732.22;5044156;28;19913;-57
2023/03/17 08:52:29;;;;;;;;;;;;;;;14.48;50.31;100743.94;5045843;28;19995;-57
2023/03/17 08:54:54;;;;;;;;;;;;;;;14.62;50.63;100749.25;5045351;28;20377;-57
2023/03/17 08:57:21;;;;;;;;;;;;;;;14.62;50.34;100754.44;5046829;28;19913;-57
2023/03/17 08:59:47;;;;;;;;;;;;;;;14.55;50.17;100750.91;5043844;28;19932;-57
2023/03/17 09:02:13;;;;;;;;;;;;;;;14.43;50.76;100749.03;5046444;28;19966;-57
2023/03/17 09:04:39;;;;;;;;;;;;;;;14.38;51.51;100745.56;5040226;28;19932;-57
2023/03/17 09:07:05;;;;;;;;;;;;;;;14.46;51.23;100743.94;5046562;28;20289;-57
2023/03/17 09:09:31;;;;;;;;;;;;;;;14.41;50.23;100740.41;5044844;28;19960;-58
2023/03/17 09:11:57;;;;;;;;;;;;;;;14.23;50.30;100732.44;5044195;28;20351;-58
2023/03/17 09:14:23;;;;;;;;;;;;;;;14.07;50.30;100735.69;5046678;28;19917;-58
2023/03/17 09:16:49;;;;;;;;;;;;;;;14.07;50.84;100746.03;5046576;28;19913;-58
2023/03/17 09:19:15;;;;;;;;;;;;;;;14.11;50.88;100730.59;5049759;28;19965;-58
2023/03/17 09:21:40;;;;;;;;;;;;;;;14.05;50.52;100735.69;5040714;28;19917;-58
2023/03/17 09:24:06;;;;;;;;;;;;;;;13.93;51.33;100738.97;5047635;28;20823;-58
2023/03/17 09:26:31;;;;;;;;;;;;;;;13.75;51.14;100733.59;5050418;28;20293;-59
2023/03/17 09:28:57;;;;;;;;;;;;;;;13.59;52.20;100731.63;5050145;28;19921;-58
2023/03/17 09:31:22;;;;;;;;;;;;;;;13.58;52.70;100735.94;5050269;28;19924;-58
2023/03/17 09:33:47;;;;;;;;;;;;;;;13.70;52.79;100748.16;5049739;28;19921;-60
2023/03/17 09:36:13;;;;;;;;;;;;;;;13.95;52.42;100750.22;5048709;28;19925;-58
2023/03/17 09:38:38;;;;;;;;;;;;;;;14.29;50.81;100740.25;5049540;28;19932;-58
2023/03/17 09:41:13;;;;;;;;;;;;;;;14.41;51.43;100742.97;5048083;28;19925;-59
2023/03/17 09:43:57;;;;;;;;;;;;;;;14.76;50.97;100734.75;5046425;28;20508;-59
2023/03/17 09:46:46;;;;;;;;;;;;;;;14.72;49.88;100728.66;5049842;28;19912;-59
2023/03/17 09:49:14;;;;;;;;;;;;;;;14.40;51.70;100736.09;5043486;28;20007;-59
2023/03/17 09:51:39;;;;;;;;;;;;;;;14.13;51.42;100744.38;5049369;28;20415;-59
2023/03/17 09:54:14;;;;;;;;;;;;;;;13.91;52.73;100763.09;5042102;28;19921;-59
2023/03/17 09:56:42;;;;;;;;;;;;;;;13.76;53.38;100756.00;5048231;28;19916;-59
2023/03/17 09:59:26;;;;;;;;;;;;;;;13.72;53.91;100761.97;5029796;28;19990;-59
2023/03/17 10:01:52;;;;;;;;;;;;;;;13.72;54.35;100753.38;5048583;28;19912;-61
2023/03/17 10:04:17;;;;;;;;;;;;;;;13.69;54.19;100760.22;5032389;28;19928;-60
2023/03/17 10:06:45;;;;;;;;;;;;;;;13.57;54.68;100754.88;5048683;28;20024;-59
2023/03/17 10:09:23;;;;;;;;;;;;;;;13.49;56.33;100758.22;5049031;28;19917;-59
2023/03/17 10:11:57;;;;;;;;;;;;;;;13.62;56.29;100773.91;5047810;28;20015;-59
2023/03/17 10:14:41;;;;;;;;;;;;;;;14.71;55.08;100776.09;5049446;28;19916;-59
2023/03/17 10:17:15;;;;;;;;;;;;;;;15.58;51.06;100786.28;5046004;28;19920;-58
2023/03/17 10:19:59;;;;;;;;;;;;;;;15.30;51.90;100790.44;5048995;28;19995;-58
2023/03/17 10:22:40;;;;;;;;;;;;;;;14.92;52.58;100782.31;5049437;28;20159;-59
2023/03/17 10:25:11;;;;;;;;;;;;;;;14.67;55.04;100773.47;5048882;28;20480;-59
2023/03/17 10:27:37;;;;;;;;;;;;;;;14.57;55.38;100792.34;5043060;28;20366;-59
2023/03/17 10:30:04;;;;;;;;;;;;;;;14.99;54.29;100804.84;5046498;28;19921;-59
2023/03/17 10:32:29;;;;;;;;;;;;;;;15.48;52.69;100790.56;5048749;28;19919;-59
2023/03/17 10:34:55;;;;;;;;;;;;;;;15.54;52.31;100794.91;5046179;28;19917;-59
2023/03/17 10:37:22;;;;;;;;;;;;;;;15.45;52.04;100785.34;5048753;28;19932;-58
2023/03/17 10:39:49;;;;;;;;;;;;;;;15.56;50.66;100796.66;5048819;28;20459;-58
2023/03/17 10:42:24;;;;;;;;;;;;;;;15.67;51.83;100795.91;5048176;28;19921;-59
2023/03/17 10:44:52;;;;;;;;;;;;;;;15.80;52.17;100802.88;5045532;28;19920;-59
2023/03/17 10:47:38;;;;;;;;;;;;;;;16.32;51.91;100803.13;5047218;28;19928;-59
2023/03/17 10:50:25;;;;;;;;;;;;;;;17.88;49.77;100792.84;5046363;28;20718;-59
2023/03/17 10:52:52;;;;;;;;;;;;;;;19.51;46.74;100786.59;5045916;28;20294;-59
2023/03/17 10:55:20;;;;;;;;;;;;;;;20.25;44.70;100767.53;5048303;28;20456;-59
2023/03/17 10:57:51;;;;;;;;;;;;;;;20.09;43.17;100769.50;5045583;28;19925;-59
2023/03/17 11:00:20;;;;;;;;;;;;;;;19.47;43.33;100777.06;5045272;28;19920;-59
2023/03/17 11:02:49;;;;;;;;;;;;;;;18.97;44.48;100774.94;5040311;28;20267;-60
2023/03/17 11:05:41;;;;;;;;;;;;;;;18.63;44.07;100777.75;5045952;28;19920;-59
2023/03/17 11:08:09;;;;;;;;;;;;;;;18.37;45.20;100782.22;5029464;28;20043;-59
2023/03/17 11:10:36;;;;;;;;;;;;;;;18.20;45.82;100767.59;5047615;28;19927;-60
2023/03/17 11:13:01;;;;;;;;;;;;;;;18.07;46.20;100765.88;5048497;28;20725;-60
2023/03/17 11:15:30;;;;;;;;;;;;;;;18.05;46.81;100751.16;5047180;28;20412;-60
2023/03/17 11:17:55;;;;;;;;;;;;;;;18.13;46.39;100755.44;5045217;28;19917;-59
2023/03/17 11:20:37;;;;;;;;;;;;;;;18.23;46.33;100754.53;5047005;28;19943;-57
2023/03/17 11:23:03;;;;;;;;;;;;;;;18.37;46.02;100748.38;5047335;28;19919;-61
2023/03/17 11:25:30;;;;;;;;;;;;;;;18.38;46.01;100744.91;5047185;28;19913;-59
2023/03/17 11:28:05;;;;;;;;;;;;;;;18.42;46.02;100744.88;5048060;28;19928;-59
2023/03/17 11:30:35;;;;;;;;;;;;;;;18.46;45.81;100740.53;5046376;28;19917;-59
2023/03/17 11:33:17;;;;;;;;;;;;;;;18.50;45.92;100731.81;5044414;28;20270;-59
2023/03/17 11:35:47;;;;;;;;;;;;;;;18.46;45.49;100740.53;5035334;28;19929;-59
2023/03/17 11:38:19;;;;;;;;;;;;;;;18.44;45.73;100750.06;5046498;28;20201;-59
2023/03/17 11:40:44;;;;;;;;;;;;;;;18.43;45.01;100751.81;5047607;28;20211;-60
2023/03/17 11:43:09;;;;;;;;;;;;;;;18.40;45.37;100746.63;5046802;28;20390;-59
2023/03/17 11:45:36;;;;;;;;;;;;;;;18.32;45.76;100743.22;5047632;28;20449;-59
2023/03/17 11:48:02;;;;;;;;;;;;;;;18.32;46.17;100745.84;5047999;28;19925;-59
2023/03/17 11:50:44;;;;;;;;;;;;;;;18.32;45.86;100742.34;5045877;28;19925;-59
2023/03/17 11:53:16;;;;;;;;;;;;;;;18.31;45.20;100732.81;5045432;28;19928;-59
2023/03/17 11:55:47;;;;;;;;;;;;;;;18.28;45.05;100728.50;5047791;28;20385;-59
2023/03/17 11:58:34;;;;;;;;;;;;;;;18.28;45.55;100722.41;5046407;28;19924;-59
2023/03/17 12:01:00;;;;;;;;;;;;;;;18.32;46.05;100716.31;5046043;28;19929;-59
2023/03/17 12:03:26;;;;;;;;;;;;;;;18.39;45.87;100723.22;5047051;28;19924;-58
2023/03/17 12:05:54;;;;;;;;;;;;;;;18.43;44.83;100717.97;5047692;28;19913;-56
2023/03/17 12:08:34;;;;;;;;;;;;;;;18.36;45.48;100713.69;5049842;28;19956;-57
2023/03/17 12:11:01;;;;;;;;;;;;;;;18.38;46.78;100721.47;5036466;28;19927;-57
2023/03/17 12:13:45;;;;;;;;;;;;;;;18.49;45.82;100724.88;5046608;28;19994;-57
2023/03/17 12:16:16;;;;;;;;;;;;;;;18.56;45.98;100713.53;5046964;28;19912;-57
2023/03/17 12:18:51;;;;;;;;;;;;;;;18.70;46.14;100718.69;5041356;28;19962;-56
2023/03/17 12:21:27;;;;;;;;;;;;;;;18.88;46.15;100712.47;5045525;28;19970;-57
2023/03/17 12:23:59;;;;;;;;;;;;;;;19.06;45.72;100711.47;5047337;28;19913;-57
2023/03/17 12:26:36;;;;;;;;;;;;;;;19.25;45.35;100719.09;5045207;28;19955;-56
2023/03/17 12:29:23;;;;;;;;;;;;;;;19.53;44.86;100708.34;5046743;28;20408;-56
2023/03/17 12:32:09;;;;;;;;;;;;;;;19.62;43.14;100707.44;5044040;28;19974;-57
2023/03/17 12:34:42;;;;;;;;;;;;;;;19.64;43.96;100718.69;5032546;28;19964;-57
2023/03/17 12:37:08;;;;;;;;;;;;;;;19.70;42.85;100713.41;5047432;28;19913;-57
2023/03/17 12:39:35;;;;;;;;;;;;;;;19.61;43.26;100722.22;5043510;28;20002;-56
2023/03/17 12:42:04;;;;;;;;;;;;;;;19.50;42.53;100713.59;5046662;28;19916;-57
2023/03/17 12:44:41;;;;;;;;;;;;;;;19.34;43.33;100709.44;5036941;28;19925;-58